sensor_id;sensor_type;location;lat;lon;timestamp;temperature;humidity
1570;DHT22;778;50.120;8.698;2023-04-01T00:01:15;11.40;99.90
1570;DHT22;778;50.120;8.698;2023-04-01T00:03:44;11.30;99.90
1570;DHT22;778;50.120;8.698;2023-04-01T00:06:14;11.40;99.90
1570;DHT22;778;50.120;8.698;2023-04-01T00:08:43;11.40;99.90
1570;DHT22;778;50.120;8.698;2023-04-01T00:11:12;11.40;99.90
1570;DHT22;778;50.120;8.698;2023-04-01T00:13:41;11.40;99.90
1570;DHT22;778;50.120;8.698;2023-04-01T00:16:10;11.40;99.90
1570;DHT22;778;50.120;8.698;2023-04-01T00:18:49;11.30;99.90
1570;DHT22;778;50.120;8.698;2023-04-01T00:21:19;11.40;99.90
1570;DHT22;778;50.120;8.698;2023-04-01T00:23:48;11.40;99.90
1570;DHT22;778;50.120;8.698;2023-04-01T00:26:18;11.30;99.90
1570;DHT22;778;50.120;8.698;2023-04-01T00:28:48;11.30;99.90
1570;DHT22;778;50.120;8.698;2023-04-01T00:31:17;11.30;99.90
1570;DHT22;778;50.120;8.698;2023-04-01T00:33:46;11.30;99.90
1570;DHT22;778;50.120;8.698;2023-04-01T00:36:18;11.30;99.90
1570;DHT22;778;50.120;8.698;2023-04-01T00:38:48;11.30;99.90
1570;DHT22;778;50.120;8.698;2023-04-01T00:41:19;11.30;99.90
1570;DHT22;778;50.120;8.698;2023-04-01T00:43:50;11.30;99.90
1570;DHT22;778;50.120;8.698;2023-04-01T00:46:19;11.30;99.90
1570;DHT22;778;50.120;8.698;2023-04-01T00:48:50;11.30;99.90
1570;DHT22;778;50.120;8.698;2023-04-01T00:51:25;11.50;99.90
1570;DHT22;778;50.120;8.698;2023-04-01T00:53:56;11.60;99.90
1570;DHT22;778;50.120;8.698;2023-04-01T00:56:33;12.40;99.90
1570;DHT22;778;50.120;8.698;2023-04-01T00:59:06;12.30;99.90
1570;DHT22;778;50.120;8.698;2023-04-01T01:01:38;12.70;99.90
1570;DHT22;778;50.120;8.698;2023-04-01T01:04:06;12.10;99.90
1570;DHT22;778;50.120;8.698;2023-04-01T01:06:46;11.70;99.90
1570;DHT22;778;50.120;8.698;2023-04-01T01:09:30;11.60;99.90
1570;DHT22;778;50.120;8.698;2023-04-01T01:12:09;11.50;99.90
1570;DHT22;778;50.120;8.698;2023-04-01T01:14:55;11.40;99.90
1570;DHT22;778;50.120;8.698;2023-04-01T01:17:35;11.40;99.90
1570;DHT22;778;50.120;8.698;2023-04-01T01:20:31;11.30;99.90
1570;DHT22;778;50.120;8.698;2023-04-01T01:30:00;11.30;99.90
1570;DHT22;778;50.120;8.698;2023-04-01T01:36:02;11.30;99.90
1570;DHT22;778;50.120;8.698;2023-04-01T01:38:35;11.30;99.90
1570;DHT22;778;50.120;8.698;2023-04-01T01:41:06;11.20;99.90
1570;DHT22;778;50.120;8.698;2023-04-01T01:43:38;11.30;99.90
1570;DHT22;778;50.120;8.698;2023-04-01T01:46:10;11.30;99.90
1570;DHT22;778;50.120;8.698;2023-04-01T01:48:42;11.20;99.90
1570;DHT22;778;50.120;8.698;2023-04-01T01:51:12;11.20;99.90
1570;DHT22;778;50.120;8.698;2023-04-01T01:53:41;11.20;99.90
1570;DHT22;778;50.120;8.698;2023-04-01T01:56:11;11.20;99.90
1570;DHT22;778;50.120;8.698;2023-04-01T01:58:43;11.20;99.90
1570;DHT22;778;50.120;8.698;2023-04-01T02:01:18;11.20;99.90
1570;DHT22;778;50.120;8.698;2023-04-01T02:03:49;11.20;99.90
1570;DHT22;778;50.120;8.698;2023-04-01T02:06:22;11.20;99.90
1570;DHT22;778;50.120;8.698;2023-04-01T02:08:55;11.20;99.90
1570;DHT22;778;50.120;8.698;2023-04-01T02:11:28;11.20;99.90
1570;DHT22;778;50.120;8.698;2023-04-01T02:14:02;11.20;99.90
1570;DHT22;778;50.120;8.698;2023-04-01T02:16:35;11.20;99.90
1570;DHT22;778;50.120;8.698;2023-04-01T02:19:08;11.20;99.90
1570;DHT22;778;50.120;8.698;2023-04-01T02:21:41;11.20;99.90
1570;DHT22;778;50.120;8.698;2023-04-01T02:24:13;11.20;99.90
1570;DHT22;778;50.120;8.698;2023-04-01T02:26:44;11.20;99.90
1570;DHT22;778;50.120;8.698;2023-04-01T02:29:13;11.20;99.90
1570;DHT22;778;50.120;8.698;2023-04-01T02:31:42;11.20;99.90
1570;DHT22;778;50.120;8.698;2023-04-01T02:34:11;11.20;99.90
1570;DHT22;778;50.120;8.698;2023-04-01T02:36:41;11.20;99.90
1570;DHT22;778;50.120;8.698;2023-04-01T02:39:11;11.20;99.90
1570;DHT22;778;50.120;8.698;2023-04-01T02:41:41;11.20;99.90
1570;DHT22;778;50.120;8.698;2023-04-01T02:44:12;11.20;99.90
1570;DHT22;778;50.120;8.698;2023-04-01T02:46:42;11.20;99.90
1570;DHT22;778;50.120;8.698;2023-04-01T02:49:11;11.20;99.90
1570;DHT22;778;50.120;8.698;2023-04-01T02:51:41;11.20;99.90
1570;DHT22;778;50.120;8.698;2023-04-01T02:54:10;11.10;99.90
1570;DHT22;778;50.120;8.698;2023-04-01T02:56:38;11.20;99.90
1570;DHT22;778;50.120;8.698;2023-04-01T02:59:07;11.20;99.90
1570;DHT22;778;50.120;8.698;2023-04-01T03:01:35;11.20;99.90
1570;DHT22;778;50.120;8.698;2023-04-01T03:04:04;11.10;99.90
1570;DHT22;778;50.120;8.698;2023-04-01T03:06:32;11.10;99.90
1570;DHT22;778;50.120;8.698;2023-04-01T03:09:02;11.10;99.90
1570;DHT22;778;50.120;8.698;2023-04-01T03:11:31;11.10;99.90
1570;DHT22;778;50.120;8.698;2023-04-01T03:14:00;11.10;99.90
1570;DHT22;778;50.120;8.698;2023-04-01T03:16:28;11.10;99.90
1570;DHT22;778;50.120;8.698;2023-04-01T03:18:56;11.10;99.90
1570;DHT22;778;50.120;8.698;2023-04-01T03:21:26;11.10;99.90
1570;DHT22;778;50.120;8.698;2023-04-01T03:23:55;11.10;99.90
1570;DHT22;778;50.120;8.698;2023-04-01T03:26:24;11.00;99.90
1570;DHT22;778;50.120;8.698;2023-04-01T03:28:55;11.00;99.90
1570;DHT22;778;50.120;8.698;2023-04-01T03:31:24;11.00;99.90
1570;DHT22;778;50.120;8.698;2023-04-01T03:33:55;11.00;99.90
1570;DHT22;778;50.120;8.698;2023-04-01T03:36:24;11.00;99.90
1570;DHT22;778;50.120;8.698;2023-04-01T03:38:52;11.00;99.90
1570;DHT22;778;50.120;8.698;2023-04-01T03:41:32;11.00;99.90
1570;DHT22;778;50.120;8.698;2023-04-01T03:44:04;11.00;99.90
1570;DHT22;778;50.120;8.698;2023-04-01T03:46:34;11.00;99.90
1570;DHT22;778;50.120;8.698;2023-04-01T03:49:02;10.90;99.90
1570;DHT22;778;50.120;8.698;2023-04-01T03:51:38;10.90;99.90
1570;DHT22;778;50.120;8.698;2023-04-01T03:54:07;10.90;99.90
1570;DHT22;778;50.120;8.698;2023-04-01T03:56:37;10.90;99.90
1570;DHT22;778;50.120;8.698;2023-04-01T03:59:07;10.90;99.90
1570;DHT22;778;50.120;8.698;2023-04-01T04:01:35;10.90;99.90
1570;DHT22;778;50.120;8.698;2023-04-01T04:04:04;10.90;99.90
1570;DHT22;778;50.120;8.698;2023-04-01T04:06:33;10.90;99.90
1570;DHT22;778;50.120;8.698;2023-04-01T04:09:01;10.90;99.90
1570;DHT22;778;50.120;8.698;2023-04-01T04:11:31;10.90;99.90
1570;DHT22;778;50.120;8.698;2023-04-01T04:14:01;10.90;99.90
1570;DHT22;778;50.120;8.698;2023-04-01T04:16:30;10.90;99.90
1570;DHT22;778;50.120;8.698;2023-04-01T04:19:01;10.90;99.90
1570;DHT22;778;50.120;8.698;2023-04-01T04:21:30;10.90;99.90
1570;DHT22;778;50.120;8.698;2023-04-01T04:23:59;10.90;99.90
1570;DHT22;778;50.120;8.698;2023-04-01T04:26:44;10.90;99.90
1570;DHT22;778;50.120;8.698;2023-04-01T04:29:14;10.90;99.90
1570;DHT22;778;50.120;8.698;2023-04-01T04:31:42;10.80;99.90
1570;DHT22;778;50.120;8.698;2023-04-01T04:34:11;10.80;99.90
1570;DHT22;778;50.120;8.698;2023-04-01T04:36:40;10.80;99.90
1570;DHT22;778;50.120;8.698;2023-04-01T04:39:09;10.90;99.90
1570;DHT22;778;50.120;8.698;2023-04-01T04:41:39;10.90;99.90
1570;DHT22;778;50.120;8.698;2023-04-01T04:44:08;10.90;99.90
1570;DHT22;778;50.120;8.698;2023-04-01T04:46:38;10.90;99.90
1570;DHT22;778;50.120;8.698;2023-04-01T04:49:13;10.90;99.90
1570;DHT22;778;50.120;8.698;2023-04-01T04:51:42;10.90;99.90
1570;DHT22;778;50.120;8.698;2023-04-01T04:54:12;10.80;99.90
1570;DHT22;778;50.120;8.698;2023-04-01T04:56:51;10.90;99.90
1570;DHT22;778;50.120;8.698;2023-04-01T04:59:21;10.80;99.90
1570;DHT22;778;50.120;8.698;2023-04-01T05:01:58;10.80;99.90
1570;DHT22;778;50.120;8.698;2023-04-01T05:04:28;10.80;99.90
1570;DHT22;778;50.120;8.698;2023-04-01T05:06:56;10.80;99.90
1570;DHT22;778;50.120;8.698;2023-04-01T05:09:24;10.80;99.90
1570;DHT22;778;50.120;8.698;2023-04-01T05:11:53;10.90;99.90
1570;DHT22;778;50.120;8.698;2023-04-01T05:14:23;10.80;99.90
1570;DHT22;778;50.120;8.698;2023-04-01T05:16:59;10.80;99.90
1570;DHT22;778;50.120;8.698;2023-04-01T05:19:28;10.80;99.90
1570;DHT22;778;50.120;8.698;2023-04-01T05:21:56;10.80;99.90
1570;DHT22;778;50.120;8.698;2023-04-01T05:24:25;10.80;99.90
1570;DHT22;778;50.120;8.698;2023-04-01T05:26:53;10.80;99.90
1570;DHT22;778;50.120;8.698;2023-04-01T05:29:23;10.80;99.90
1570;DHT22;778;50.120;8.698;2023-04-01T05:32:01;10.80;99.90
1570;DHT22;778;50.120;8.698;2023-04-01T05:34:30;10.80;99.90
1570;DHT22;778;50.120;8.698;2023-04-01T05:36:58;10.80;99.90
1570;DHT22;778;50.120;8.698;2023-04-01T05:39:27;10.70;99.90
1570;DHT22;778;50.120;8.698;2023-04-01T05:41:55;10.80;99.90
1570;DHT22;778;50.120;8.698;2023-04-01T05:44:23;10.70;99.90
1570;DHT22;778;50.120;8.698;2023-04-01T05:47:13;10.80;99.90
1570;DHT22;778;50.120;8.698;2023-04-01T05:49:41;10.80;99.90
1570;DHT22;778;50.120;8.698;2023-04-01T05:52:10;10.70;99.90
1570;DHT22;778;50.120;8.698;2023-04-01T05:54:38;10.70;99.90
1570;DHT22;778;50.120;8.698;2023-04-01T05:57:07;10.70;99.90
1570;DHT22;778;50.120;8.698;2023-04-01T05:59:35;10.70;99.90
1570;DHT22;778;50.120;8.698;2023-04-01T06:02:04;10.70;99.90
1570;DHT22;778;50.120;8.698;2023-04-01T06:04:38;10.70;99.90
1570;DHT22;778;50.120;8.698;2023-04-01T06:07:15;10.60;99.90
1570;DHT22;778;50.120;8.698;2023-04-01T06:09:45;10.60;99.90
1570;DHT22;778;50.120;8.698;2023-04-01T06:12:27;10.60;99.90
1570;DHT22;778;50.120;8.698;2023-04-01T06:15:11;10.60;99.90
1570;DHT22;778;50.120;8.698;2023-04-01T06:17:54;10.60;99.90
1570;DHT22;778;50.120;8.698;2023-04-01T06:20:42;10.60;99.90
1570;DHT22;778;50.120;8.698;2023-04-01T06:23:24;10.60;99.90
1570;DHT22;778;50.120;8.698;2023-04-01T06:26:10;10.60;99.90
1570;DHT22;778;50.120;8.698;2023-04-01T06:29:04;10.60;99.90
1570;DHT22;778;50.120;8.698;2023-04-01T06:32:00;10.60;99.90
1570;DHT22;778;50.120;8.698;2023-04-01T06:34:55;10.60;99.90
1570;DHT22;778;50.120;8.698;2023-04-01T06:38:01;10.60;99.90
1570;DHT22;778;50.120;8.698;2023-04-01T06:41:20;10.60;99.90
1570;DHT22;778;50.120;8.698;2023-04-01T06:43:59;10.60;99.90
1570;DHT22;778;50.120;8.698;2023-04-01T06:46:59;10.70;99.90
1570;DHT22;778;50.120;8.698;2023-04-01T06:50:09;10.60;99.90
1570;DHT22;778;50.120;8.698;2023-04-01T06:53:12;10.70;99.90
1570;DHT22;778;50.120;8.698;2023-04-01T06:56:18;10.70;99.90
1570;DHT22;778;50.120;8.698;2023-04-01T06:59:05;10.70;99.90
1570;DHT22;778;50.120;8.698;2023-04-01T07:01:37;10.70;99.90
1570;DHT22;778;50.120;8.698;2023-04-01T07:04:13;10.80;99.90
1570;DHT22;778;50.120;8.698;2023-04-01T07:06:47;10.70;99.90
1570;DHT22;778;50.120;8.698;2023-04-01T07:09:20;10.80;99.90
1570;DHT22;778;50.120;8.698;2023-04-01T07:12:13;10.70;99.90
1570;DHT22;778;50.120;8.698;2023-04-01T07:15:10;10.70;99.90
1570;DHT22;778;50.120;8.698;2023-04-01T07:17:43;10.70;99.90
1570;DHT22;778;50.120;8.698;2023-04-01T07:20:17;10.70;99.90
1570;DHT22;778;50.120;8.698;2023-04-01T07:22:50;10.70;99.90
1570;DHT22;778;50.120;8.698;2023-04-01T07:25:29;10.70;99.90
1570;DHT22;778;50.120;8.698;2023-04-01T07:28:31;10.70;99.90
1570;DHT22;778;50.120;8.698;2023-04-01T07:31:32;10.70;99.90
1570;DHT22;778;50.120;8.698;2023-04-01T07:34:25;10.70;99.90
1570;DHT22;778;50.120;8.698;2023-04-01T07:36:59;10.70;99.90
1570;DHT22;778;50.120;8.698;2023-04-01T07:39:40;10.70;99.90
1570;DHT22;778;50.120;8.698;2023-04-01T07:42:37;10.80;99.90
1570;DHT22;778;50.120;8.698;2023-04-01T07:45:19;10.80;99.90
1570;DHT22;778;50.120;8.698;2023-04-01T07:48:09;10.80;99.90
1570;DHT22;778;50.120;8.698;2023-04-01T07:50:48;10.80;99.90
1570;DHT22;778;50.120;8.698;2023-04-01T07:53:27;10.90;99.90
1570;DHT22;778;50.120;8.698;2023-04-01T07:56:06;11.00;99.90
1570;DHT22;778;50.120;8.698;2023-04-01T07:58:50;11.10;99.90
1570;DHT22;778;50.120;8.698;2023-04-01T08:01:49;11.10;99.90
1570;DHT22;778;50.120;8.698;2023-04-01T08:04:28;11.10;99.90
1570;DHT22;778;50.120;8.698;2023-04-01T08:07:08;11.20;99.90
1570;DHT22;778;50.120;8.698;2023-04-01T08:09:52;11.20;99.90
1570;DHT22;778;50.120;8.698;2023-04-01T08:13:08;11.30;99.90
1570;DHT22;778;50.120;8.698;2023-04-01T08:16:07;11.40;99.90
1570;DHT22;778;50.120;8.698;2023-04-01T08:18:54;11.40;99.90
1570;DHT22;778;50.120;8.698;2023-04-01T08:21:32;11.40;99.90
1570;DHT22;778;50.120;8.698;2023-04-01T08:24:11;11.40;99.90
1570;DHT22;778;50.120;8.698;2023-04-01T08:26:51;11.50;99.90
1570;DHT22;778;50.120;8.698;2023-04-01T08:29:25;11.60;99.90
1570;DHT22;778;50.120;8.698;2023-04-01T08:31:59;11.60;99.90
1570;DHT22;778;50.120;8.698;2023-04-01T08:34:35;11.60;99.90
1570;DHT22;778;50.120;8.698;2023-04-01T08:37:14;11.70;99.90
1570;DHT22;778;50.120;8.698;2023-04-01T08:39:51;11.60;99.90
1570;DHT22;778;50.120;8.698;2023-04-01T08:45:56;11.70;99.90
1570;DHT22;778;50.120;8.698;2023-04-01T08:48:48;11.60;99.90
1570;DHT22;778;50.120;8.698;2023-04-01T08:54:49;11.70;99.90
1570;DHT22;778;50.120;8.698;2023-04-01T08:58:07;11.70;99.90
1570;DHT22;778;50.120;8.698;2023-04-01T09:01:33;11.80;99.90
1570;DHT22;778;50.120;8.698;2023-04-01T09:05:12;11.80;99.90
1570;DHT22;778;50.120;8.698;2023-04-01T09:07:59;11.80;99.90
1570;DHT22;778;50.120;8.698;2023-04-01T09:10:50;11.80;99.90
1570;DHT22;778;50.120;8.698;2023-04-01T09:14:16;11.80;99.90
1570;DHT22;778;50.120;8.698;2023-04-01T09:17:19;11.90;99.90
1570;DHT22;778;50.120;8.698;2023-04-01T09:20:27;11.80;99.90
1570;DHT22;778;50.120;8.698;2023-04-01T09:23:15;11.80;99.90
1570;DHT22;778;50.120;8.698;2023-04-01T09:26:08;11.80;99.90
1570;DHT22;778;50.120;8.698;2023-04-01T09:28:53;11.90;99.90
1570;DHT22;778;50.120;8.698;2023-04-01T09:31:50;11.90;99.90
1570;DHT22;778;50.120;8.698;2023-04-01T09:34:53;11.90;99.90
1570;DHT22;778;50.120;8.698;2023-04-01T09:37:34;11.90;99.90
1570;DHT22;778;50.120;8.698;2023-04-01T09:40:23;11.90;99.90
1570;DHT22;778;50.120;8.698;2023-04-01T09:46:18;11.90;99.90
1570;DHT22;778;50.120;8.698;2023-04-01T09:49:05;12.00;99.90
1570;DHT22;778;50.120;8.698;2023-04-01T09:51:52;12.00;99.90
1570;DHT22;778;50.120;8.698;2023-04-01T09:54:36;12.10;99.90
1570;DHT22;778;50.120;8.698;2023-04-01T09:57:38;12.10;99.90
1570;DHT22;778;50.120;8.698;2023-04-01T10:01:09;12.20;99.90
1570;DHT22;778;50.120;8.698;2023-04-01T10:04:34;12.20;99.90
1570;DHT22;778;50.120;8.698;2023-04-01T10:07:51;12.10;99.90
1570;DHT22;778;50.120;8.698;2023-04-01T10:20:28;12.20;99.90
1570;DHT22;778;50.120;8.698;2023-04-01T10:23:20;12.20;99.90
1570;DHT22;778;50.120;8.698;2023-04-01T10:26:19;12.20;99.90
1570;DHT22;778;50.120;8.698;2023-04-01T10:29:41;12.20;99.90
1570;DHT22;778;50.120;8.698;2023-04-01T10:36:22;12.30;99.90
1570;DHT22;778;50.120;8.698;2023-04-01T10:43:06;12.40;99.90
1570;DHT22;778;50.120;8.698;2023-04-01T10:50:01;12.50;99.90
1570;DHT22;778;50.120;8.698;2023-04-01T10:56:38;12.50;99.90
1570;DHT22;778;50.120;8.698;2023-04-01T11:00:05;12.60;99.90
1570;DHT22;778;50.120;8.698;2023-04-01T11:07:31;12.60;99.90
1570;DHT22;778;50.120;8.698;2023-04-01T11:17:41;12.70;99.90
1570;DHT22;778;50.120;8.698;2023-04-01T11:20:51;12.70;99.90
1570;DHT22;778;50.120;8.698;2023-04-01T11:23:48;12.70;99.90
1570;DHT22;778;50.120;8.698;2023-04-01T11:26:50;12.80;99.90
1570;DHT22;778;50.120;8.698;2023-04-01T11:30:07;12.80;99.90
1570;DHT22;778;50.120;8.698;2023-04-01T11:32:52;12.80;99.90
1570;DHT22;778;50.120;8.698;2023-04-01T11:35:48;12.80;99.90
1570;DHT22;778;50.120;8.698;2023-04-01T11:38:36;12.90;99.90
1570;DHT22;778;50.120;8.698;2023-04-01T11:41:34;12.90;99.90
1570;DHT22;778;50.120;8.698;2023-04-01T11:44:34;12.90;99.90
1570;DHT22;778;50.120;8.698;2023-04-01T11:47:22;12.90;99.90
1570;DHT22;778;50.120;8.698;2023-04-01T11:50:15;13.00;99.90
1570;DHT22;778;50.120;8.698;2023-04-01T11:53:02;13.00;99.90
1570;DHT22;778;50.120;8.698;2023-04-01T11:55:47;12.90;99.90
1570;DHT22;778;50.120;8.698;2023-04-01T11:58:49;12.90;99.90
1570;DHT22;778;50.120;8.698;2023-04-01T12:01:32;12.90;99.90
1570;DHT22;778;50.120;8.698;2023-04-01T12:08:02;12.90;99.90
1570;DHT22;778;50.120;8.698;2023-04-01T12:10:40;12.90;99.90
1570;DHT22;778;50.120;8.698;2023-04-01T12:13:19;12.80;99.90
1570;DHT22;778;50.120;8.698;2023-04-01T12:16:21;12.80;99.90
1570;DHT22;778;50.120;8.698;2023-04-01T12:19:03;12.70;99.90
1570;DHT22;778;50.120;8.698;2023-04-01T12:21:38;12.70;99.90
1570;DHT22;778;50.120;8.698;2023-04-01T12:24:28;12.70;99.90
1570;DHT22;778;50.120;8.698;2023-04-01T12:27:33;12.60;99.90
1570;DHT22;778;50.120;8.698;2023-04-01T12:30:26;12.60;99.90
1570;DHT22;778;50.120;8.698;2023-04-01T12:36:18;12.60;99.90
1570;DHT22;778;50.120;8.698;2023-04-01T12:39:07;12.60;99.90
1570;DHT22;778;50.120;8.698;2023-04-01T12:41:51;12.60;99.90
1570;DHT22;778;50.120;8.698;2023-04-01T12:44:30;12.60;99.90
1570;DHT22;778;50.120;8.698;2023-04-01T12:47:55;12.60;99.90
1570;DHT22;778;50.120;8.698;2023-04-01T12:50:39;12.60;99.90
1570;DHT22;778;50.120;8.698;2023-04-01T12:53:34;12.60;99.90
1570;DHT22;778;50.120;8.698;2023-04-01T12:56:14;12.60;99.90
1570;DHT22;778;50.120;8.698;2023-04-01T12:59:19;12.60;99.90
1570;DHT22;778;50.120;8.698;2023-04-01T13:02:01;12.60;99.90
1570;DHT22;778;50.120;8.698;2023-04-01T13:04:56;12.60;99.90
1570;DHT22;778;50.120;8.698;2023-04-01T13:07:53;12.60;99.90
1570;DHT22;778;50.120;8.698;2023-04-01T13:10:42;12.60;99.90
1570;DHT22;778;50.120;8.698;2023-04-01T13:13:41;12.60;99.90
1570;DHT22;778;50.120;8.698;2023-04-01T13:16:27;12.70;99.90
1570;DHT22;778;50.120;8.698;2023-04-01T13:19:01;12.70;99.90
1570;DHT22;778;50.120;8.698;2023-04-01T13:21:41;12.70;99.90
1570;DHT22;778;50.120;8.698;2023-04-01T13:24:24;12.80;99.90
1570;DHT22;778;50.120;8.698;2023-04-01T13:27:05;12.90;99.90
1570;DHT22;778;50.120;8.698;2023-04-01T13:29:40;13.00;99.90
1570;DHT22;778;50.120;8.698;2023-04-01T13:32:29;13.00;99.90
1570;DHT22;778;50.120;8.698;2023-04-01T13:35:23;13.20;99.90
1570;DHT22;778;50.120;8.698;2023-04-01T13:41:16;13.20;99.90
1570;DHT22;778;50.120;8.698;2023-04-01T13:43:54;13.10;99.90
1570;DHT22;778;50.120;8.698;2023-04-01T13:47:02;13.00;99.90
1570;DHT22;778;50.120;8.698;2023-04-01T13:49:47;13.00;99.90
1570;DHT22;778;50.120;8.698;2023-04-01T13:52:43;13.00;99.90
1570;DHT22;778;50.120;8.698;2023-04-01T13:55:34;13.10;99.90
1570;DHT22;778;50.120;8.698;2023-04-01T13:58:38;13.20;99.90
1570;DHT22;778;50.120;8.698;2023-04-01T14:01:29;13.30;99.90
1570;DHT22;778;50.120;8.698;2023-04-01T14:04:19;13.30;99.90
1570;DHT22;778;50.120;8.698;2023-04-01T14:07:31;13.30;99.90
1570;DHT22;778;50.120;8.698;2023-04-01T14:10:18;13.20;99.90
1570;DHT22;778;50.120;8.698;2023-04-01T14:12:58;13.20;99.90
1570;DHT22;778;50.120;8.698;2023-04-01T14:15:48;13.10;99.90
1570;DHT22;778;50.120;8.698;2023-04-01T14:18:42;13.20;99.90
1570;DHT22;778;50.120;8.698;2023-04-01T14:21:29;13.20;99.90
1570;DHT22;778;50.120;8.698;2023-04-01T14:24:29;13.20;99.90
1570;DHT22;778;50.120;8.698;2023-04-01T14:30:35;12.90;99.90
1570;DHT22;778;50.120;8.698;2023-04-01T14:33:29;12.90;99.90
1570;DHT22;778;50.120;8.698;2023-04-01T14:36:27;12.90;99.90
1570;DHT22;778;50.120;8.698;2023-04-01T14:39:13;12.90;99.90
1570;DHT22;778;50.120;8.698;2023-04-01T14:41:51;12.80;99.90
1570;DHT22;778;50.120;8.698;2023-04-01T14:47:53;12.90;99.90
1570;DHT22;778;50.120;8.698;2023-04-01T14:50:24;12.90;99.90
1570;DHT22;778;50.120;8.698;2023-04-01T14:53:11;12.90;99.90
1570;DHT22;778;50.120;8.698;2023-04-01T14:55:50;13.10;99.90
1570;DHT22;778;50.120;8.698;2023-04-01T14:58:20;13.50;99.90
1570;DHT22;778;50.120;8.698;2023-04-01T15:01:01;13.90;99.90
1570;DHT22;778;50.120;8.698;2023-04-01T15:03:48;14.10;99.90
1570;DHT22;778;50.120;8.698;2023-04-01T15:06:38;13.80;99.90
1570;DHT22;778;50.120;8.698;2023-04-01T15:09:18;13.70;99.90
1570;DHT22;778;50.120;8.698;2023-04-01T15:12:04;13.60;99.90
1570;DHT22;778;50.120;8.698;2023-04-01T15:14:50;13.50;99.90
1570;DHT22;778;50.120;8.698;2023-04-01T15:17:40;13.30;99.90
1570;DHT22;778;50.120;8.698;2023-04-01T15:20:41;13.20;99.90
1570;DHT22;778;50.120;8.698;2023-04-01T15:23:40;13.00;99.90
1570;DHT22;778;50.120;8.698;2023-04-01T15:26:21;13.00;99.90
1570;DHT22;778;50.120;8.698;2023-04-01T15:29:19;12.90;99.90
1570;DHT22;778;50.120;8.698;2023-04-01T15:32:13;12.90;99.90
1570;DHT22;778;50.120;8.698;2023-04-01T15:34:51;12.90;99.90
1570;DHT22;778;50.120;8.698;2023-04-01T15:37:31;12.90;99.90
1570;DHT22;778;50.120;8.698;2023-04-01T15:40:15;12.90;99.90
1570;DHT22;778;50.120;8.698;2023-04-01T15:43:14;12.90;99.90
1570;DHT22;778;50.120;8.698;2023-04-01T15:45:56;12.90;99.90
1570;DHT22;778;50.120;8.698;2023-04-01T15:48:39;12.90;99.90
1570;DHT22;778;50.120;8.698;2023-04-01T15:51:27;12.90;99.90
1570;DHT22;778;50.120;8.698;2023-04-01T15:54:32;12.80;99.90
1570;DHT22;778;50.120;8.698;2023-04-01T15:57:25;12.90;99.90
1570;DHT22;778;50.120;8.698;2023-04-01T16:00:17;12.90;99.90
1570;DHT22;778;50.120;8.698;2023-04-01T16:03:00;12.90;99.90
1570;DHT22;778;50.120;8.698;2023-04-01T16:05:46;12.80;99.90
1570;DHT22;778;50.120;8.698;2023-04-01T16:08:42;12.80;99.90
1570;DHT22;778;50.120;8.698;2023-04-01T16:11:24;12.70;99.90
1570;DHT22;778;50.120;8.698;2023-04-01T16:14:11;12.70;99.90
1570;DHT22;778;50.120;8.698;2023-04-01T16:16:58;12.70;99.90
1570;DHT22;778;50.120;8.698;2023-04-01T16:19:51;12.70;99.90
1570;DHT22;778;50.120;8.698;2023-04-01T16:22:23;12.70;99.90
1570;DHT22;778;50.120;8.698;2023-04-01T16:24:59;12.80;99.90
1570;DHT22;778;50.120;8.698;2023-04-01T16:27:40;12.80;99.90
1570;DHT22;778;50.120;8.698;2023-04-01T16:30:26;12.80;99.90
1570;DHT22;778;50.120;8.698;2023-04-01T16:33:05;12.80;99.90
1570;DHT22;778;50.120;8.698;2023-04-01T16:35:44;12.80;99.90
1570;DHT22;778;50.120;8.698;2023-04-01T16:38:20;12.80;99.90
1570;DHT22;778;50.120;8.698;2023-04-01T16:41:04;12.70;99.90
1570;DHT22;778;50.120;8.698;2023-04-01T16:43:44;12.70;99.90
1570;DHT22;778;50.120;8.698;2023-04-01T16:46:28;12.70;99.90
1570;DHT22;778;50.120;8.698;2023-04-01T16:49:13;12.70;99.90
1570;DHT22;778;50.120;8.698;2023-04-01T16:51:48;12.60;99.90
1570;DHT22;778;50.120;8.698;2023-04-01T16:54:28;12.60;99.90
1570;DHT22;778;50.120;8.698;2023-04-01T16:57:10;12.60;99.90
1570;DHT22;778;50.120;8.698;2023-04-01T16:59:51;12.60;99.90
1570;DHT22;778;50.120;8.698;2023-04-01T17:02:27;12.60;99.90
1570;DHT22;778;50.120;8.698;2023-04-01T17:05:01;12.60;99.90
1570;DHT22;778;50.120;8.698;2023-04-01T17:07:40;12.60;99.90
1570;DHT22;778;50.120;8.698;2023-04-01T17:10:42;12.60;99.90
1570;DHT22;778;50.120;8.698;2023-04-01T17:13:40;12.50;99.90
1570;DHT22;778;50.120;8.698;2023-04-01T17:16:54;12.50;99.90
1570;DHT22;778;50.120;8.698;2023-04-01T17:19:49;12.50;99.90
1570;DHT22;778;50.120;8.698;2023-04-01T17:22:33;12.50;99.90
1570;DHT22;778;50.120;8.698;2023-04-01T17:28:10;12.40;99.90
1570;DHT22;778;50.120;8.698;2023-04-01T17:30:50;12.40;99.90
1570;DHT22;778;50.120;8.698;2023-04-01T17:33:37;12.40;99.90
1570;DHT22;778;50.120;8.698;2023-04-01T17:36:19;12.30;99.90
1570;DHT22;778;50.120;8.698;2023-04-01T17:39:18;12.30;99.90
1570;DHT22;778;50.120;8.698;2023-04-01T17:41:57;12.30;99.90
1570;DHT22;778;50.120;8.698;2023-04-01T17:44:44;12.20;99.90
1570;DHT22;778;50.120;8.698;2023-04-01T17:47:31;12.20;99.90
1570;DHT22;778;50.120;8.698;2023-04-01T17:50:18;12.10;99.90
1570;DHT22;778;50.120;8.698;2023-04-01T17:52:58;12.10;99.90
1570;DHT22;778;50.120;8.698;2023-04-01T17:55:48;12.10;99.90
1570;DHT22;778;50.120;8.698;2023-04-01T17:58:28;12.00;99.90
1570;DHT22;778;50.120;8.698;2023-04-01T18:01:08;12.00;99.90
1570;DHT22;778;50.120;8.698;2023-04-01T18:04:07;12.00;99.90
1570;DHT22;778;50.120;8.698;2023-04-01T18:06:52;12.00;99.90
1570;DHT22;778;50.120;8.698;2023-04-01T18:09:37;11.90;99.90
1570;DHT22;778;50.120;8.698;2023-04-01T18:12:17;11.90;99.90
1570;DHT22;778;50.120;8.698;2023-04-01T18:17:57;11.90;99.90
1570;DHT22;778;50.120;8.698;2023-04-01T18:20:40;11.90;99.90
1570;DHT22;778;50.120;8.698;2023-04-01T18:23:23;11.90;99.90
1570;DHT22;778;50.120;8.698;2023-04-01T18:26:01;11.90;99.90
1570;DHT22;778;50.120;8.698;2023-04-01T18:28:36;11.90;99.90
1570;DHT22;778;50.120;8.698;2023-04-01T18:31:10;11.90;99.90
1570;DHT22;778;50.120;8.698;2023-04-01T18:33:50;11.90;99.90
1570;DHT22;778;50.120;8.698;2023-04-01T18:36:35;11.90;99.90
1570;DHT22;778;50.120;8.698;2023-04-01T18:39:12;11.90;99.90
1570;DHT22;778;50.120;8.698;2023-04-01T18:41:51;11.90;99.90
1570;DHT22;778;50.120;8.698;2023-04-01T18:44:31;11.90;99.90
1570;DHT22;778;50.120;8.698;2023-04-01T18:47:22;11.90;99.90
1570;DHT22;778;50.120;8.698;2023-04-01T18:49:58;11.90;99.90
1570;DHT22;778;50.120;8.698;2023-04-01T18:52:33;11.90;99.90
1570;DHT22;778;50.120;8.698;2023-04-01T18:55:23;11.90;99.90
1570;DHT22;778;50.120;8.698;2023-04-01T18:58:11;11.90;99.90
1570;DHT22;778;50.120;8.698;2023-04-01T19:00:47;11.80;99.90
1570;DHT22;778;50.120;8.698;2023-04-01T19:03:21;11.80;99.90
1570;DHT22;778;50.120;8.698;2023-04-01T19:05:52;11.70;99.90
1570;DHT22;778;50.120;8.698;2023-04-01T19:08:28;11.80;99.90
1570;DHT22;778;50.120;8.698;2023-04-01T19:11:07;11.80;99.90
1570;DHT22;778;50.120;8.698;2023-04-01T19:13:46;11.70;99.90
1570;DHT22;778;50.120;8.698;2023-04-01T19:16:28;11.80;99.90